Time;durP1;ratioP1;P1;durP2;ratioP2;P2;SDS_P1;SDS_P2;PMS_P1;PMS_P2;Temp;Humidity;BMP_temperature;BMP_pressure;BME280_temperature;BME280_humidity;BME280_pressure;Samples;Min_cycle;Max_cycle;Signal;HPM_P1;HPM_P2
2021/12/16 00:06:58;;;;;;;11.60;7.53;;;;;;;3.18;81.06;99204.03;6158167;28;20241;-74
2021/12/16 00:10:16;;;;;;;8.87;5.50;;;;;;;3.23;81.18;99207.38;6176963;28;20610;-73
2021/12/16 00:28:59;;;;;;;7.67;4.90;;;;;;;3.21;81.18;99206.53;6179262;28;20239;-73
2021/12/16 00:30:39;;;;;;;8.53;5.70;;;;;;;3.22;81.64;99200.44;6183617;28;20682;-74
2021/12/16 00:33:41;;;;;;;7.43;5.73;;;;;;;3.26;81.92;99199.47;6180862;28;20219;-73
2021/12/16 00:36:45;;;;;;;8.40;5.80;;;;;;;3.36;80.59;99203.53;6149937;28;20236;-74
2021/12/16 00:39:47;;;;;;;10.03;6.17;;;;;;;3.47;80.45;99200.63;6177887;28;20233;-74
2021/12/16 00:42:58;;;;;;;6.33;4.90;;;;;;;3.53;79.64;99203.06;6181399;28;20731;-73
2021/12/16 00:49:22;;;;;;;9.57;5.60;;;;;;;3.64;78.70;99194.03;6174672;28;20319;-74
2021/12/16 00:55:49;;;;;;;7.93;5.50;;;;;;;3.68;78.94;99200.03;6182193;28;20651;-73
2021/12/16 00:58:56;;;;;;;7.33;5.27;;;;;;;3.70;78.85;99213.88;6181355;28;20247;-74
2021/12/16 01:35:53;;;;;;;6.80;5.03;;;;;;;3.84;76.81;99190.88;6163749;28;20233;-74
2021/12/16 01:49:08;;;;;;;7.37;5.50;;;;;;;3.87;77.32;99179.47;6164420;28;20718;-72
2021/12/16 01:55:20;;;;;;;6.20;4.67;;;;;;;3.89;76.88;99175.06;6179458;28;20608;-73
2021/12/16 01:58:26;;;;;;;6.50;5.20;;;;;;;3.89;77.27;99168.09;6180626;28;20229;-73
2021/12/16 02:01:32;;;;;;;5.47;4.17;;;;;;;3.85;76.94;99166.47;6180896;28;20545;-73
2021/12/16 02:04:42;;;;;;;6.97;4.60;;;;;;;3.89;76.34;99164.63;6172018;28;20238;-74
2021/12/16 02:11:29;;;;;;;6.07;4.70;;;;;;;3.88;77.04;99152.47;6173374;28;20269;-73
2021/12/16 02:28:13;;;;;;;5.93;4.80;;;;;;;3.85;77.26;99142.09;6179369;28;20709;-74
2021/12/16 02:34:31;;;;;;;6.80;4.57;;;;;;;3.84;76.85;99130.81;6172559;28;20615;-73
2021/12/16 02:37:44;;;;;;;6.40;5.03;;;;;;;3.82;77.25;99130.00;6180266;28;20233;-74
2021/12/16 02:40:48;;;;;;;5.57;4.30;;;;;;;3.79;77.53;99127.50;6178984;28;20236;-73
2021/12/16 02:50:21;;;;;;;5.70;4.60;;;;;;;3.77;78.54;99131.03;6172028;28;20232;-74
2021/12/16 02:53:23;;;;;;;6.03;4.53;;;;;;;3.78;77.88;99117.94;6178535;28;20607;-73
2021/12/16 02:56:26;;;;;;;7.43;4.60;;;;;;;3.75;78.58;99120.63;6178130;28;20306;-74
2021/12/16 02:59:30;;;;;;;6.53;4.73;;;;;;;3.76;78.10;99116.28;6179686;28;20306;-73
2021/12/16 03:02:33;;;;;;;6.90;4.93;;;;;;;3.74;78.16;99116.31;6180200;28;20794;-72
2021/12/16 03:05:35;;;;;;;6.23;4.53;;;;;;;3.75;78.63;99117.16;6163157;28;20229;-72
2021/12/16 03:08:39;;;;;;;7.10;5.47;;;;;;;3.72;79.08;99123.34;6178051;28;20309;-73
2021/12/16 03:12:12;;;;;;;5.87;5.00;;;;;;;3.71;79.08;99124.22;6159972;28;20245;-74
2021/12/16 03:15:25;;;;;;;7.17;4.97;;;;;;;3.71;79.14;99127.69;6176651;28;20229;-73
2021/12/16 03:21:40;;;;;;;9.97;4.97;;;;;;;3.67;79.21;99120.00;6154347;28;20244;-73
2021/12/16 03:25:14;;;;;;;7.10;4.83;;;;;;;3.65;79.24;99127.03;6154901;28;20232;-74
2021/12/16 03:37:26;;;;;;;7.23;5.67;;;;;;;3.62;79.38;99130.56;6161294;28;20248;-74
2021/12/16 03:40:30;;;;;;;6.90;5.67;;;;;;;3.61;80.05;99131.47;6178202;28;20236;-74
2021/12/16 03:43:36;;;;;;;6.77;5.13;;;;;;;3.60;79.83;99129.75;6179419;28;20229;-73
2021/12/16 03:46:49;;;;;;;6.93;5.23;;;;;;;3.60;79.73;99129.75;6176653;28;20235;-74
2021/12/16 03:49:52;;;;;;;7.00;5.47;;;;;;;3.59;79.64;99122.81;6146368;28;20719;-73
2021/12/16 03:52:56;;;;;;;6.87;5.27;;;;;;;3.59;79.71;99125.44;6181550;28;20229;-73
2021/12/16 03:55:58;;;;;;;8.23;5.90;;;;;;;3.60;79.64;99134.97;6161971;28;20242;-74
2021/12/16 03:59:07;;;;;;;6.93;5.37;;;;;;;3.59;79.22;99133.28;6154184;28;20233;-73
2021/12/16 04:02:26;;;;;;;7.63;6.20;;;;;;;3.58;79.29;99130.72;6180385;28;20676;-75
2021/12/16 04:05:30;;;;;;;7.30;5.60;;;;;;;3.59;79.78;99128.03;6174701;28;20246;-73
2021/12/16 04:08:39;;;;;;;6.70;5.70;;;;;;;3.60;79.67;99128.91;6162572;28;20720;-74
2021/12/16 04:11:50;;;;;;;7.10;6.23;;;;;;;3.60;80.11;99129.75;6162630;28;20726;-73
2021/12/16 04:14:57;;;;;;;11.47;6.60;;;;;;;3.61;79.83;99123.66;6181369;28;20228;-73
2021/12/16 04:18:00;;;;;;;7.40;5.70;;;;;;;3.60;79.43;99118.47;6182126;28;20240;-73
2021/12/16 04:21:03;;;;;;;8.33;6.23;;;;;;;3.59;79.82;99116.78;6164325;28;20587;-73
2021/12/16 04:24:06;;;;;;;7.93;5.80;;;;;;;3.59;80.02;99116.78;6184087;28;20232;-73
2021/12/16 04:27:09;;;;;;;7.13;5.27;;;;;;;3.60;79.90;99115.84;6186440;28;20694;-74
2021/12/16 04:30:16;;;;;;;7.37;6.23;;;;;;;3.60;79.98;99124.53;6166054;28;20744;-74
2021/12/16 04:33:20;;;;;;;6.60;5.43;;;;;;;3.60;79.52;99123.69;6183247;28;20224;-73
2021/12/16 04:36:22;;;;;;;8.13;5.73;;;;;;;3.58;80.19;99131.59;6167954;28;20248;-74
2021/12/16 04:39:31;;;;;;;7.97;6.47;;;;;;;3.58;80.25;99136.81;6182611;28;20231;-74
2021/12/16 04:42:35;;;;;;;8.13;6.47;;;;;;;3.57;80.13;99142.94;6180933;28;20230;-72
2021/12/16 04:45:38;;;;;;;7.00;5.73;;;;;;;3.58;80.21;99144.63;6166839;28;20232;-74
2021/12/16 04:48:44;;;;;;;8.07;5.97;;;;;;;3.60;80.34;99140.19;6164780;28;20749;-74
2021/12/16 04:52:00;;;;;;;8.93;7.37;;;;;;;3.61;79.77;99147.13;6134018;28;20230;-74
2021/12/16 04:55:06;;;;;;;8.87;6.90;;;;;;;3.61;80.08;99143.66;6178393;28;20234;-73
2021/12/16 04:58:08;;;;;;;8.07;6.53;;;;;;;3.60;80.17;99148.03;6180773;28;20367;-74
2021/12/16 05:01:11;;;;;;;7.87;6.13;;;;;;;3.61;80.12;99141.91;6182107;28;20275;-74
2021/12/16 05:04:17;;;;;;;7.83;6.00;;;;;;;3.60;79.85;99148.03;6174601;28;20243;-74
2021/12/16 05:07:23;;;;;;;7.63;6.77;;;;;;;3.60;80.48;99150.66;6168608;28;20261;-72
2021/12/16 05:10:57;;;;;;;9.57;7.73;;;;;;;3.61;79.62;99143.66;6181033;28;20248;-72
2021/12/16 05:13:59;;;;;;;11.30;8.07;;;;;;;3.62;79.81;99148.00;6179946;28;20232;-74
2021/12/16 05:17:08;;;;;;;10.53;8.20;;;;;;;3.61;80.13;99157.56;6180058;28;20243;-74
2021/12/16 05:20:16;;;;;;;8.17;6.97;;;;;;;3.63;80.13;99154.94;6182373;28;20275;-74
2021/12/16 05:26:39;;;;;;;9.43;7.07;;;;;;;3.64;80.53;99154.88;6180498;28;20233;-74
2021/12/16 05:29:43;;;;;;;9.17;7.33;;;;;;;3.63;80.18;99154.94;6163817;28;20496;-73
2021/12/16 05:32:47;;;;;;;8.30;7.50;;;;;;;3.64;79.99;99162.72;6180324;28;20351;-74
2021/12/16 05:35:50;;;;;;;10.83;8.50;;;;;;;3.63;80.56;99166.22;6177195;28;20311;-75
2021/12/16 05:38:52;;;;;;;9.90;8.23;;;;;;;3.63;80.20;99173.19;6175816;28;20270;-75
2021/12/16 05:41:57;;;;;;;8.73;7.47;;;;;;;3.65;80.62;99172.25;6184268;28;20237;-75
2021/12/16 05:44:59;;;;;;;9.70;7.77;;;;;;;3.63;80.23;99176.66;6181627;28;20642;-75
2021/12/16 05:48:05;;;;;;;8.97;7.67;;;;;;;3.61;80.34;99178.47;6172156;28;20223;-74
2021/12/16 05:51:11;;;;;;;11.70;7.80;;;;;;;3.59;80.47;99182.88;6162497;28;20224;-74
2021/12/16 05:54:16;;;;;;;8.57;7.40;;;;;;;3.53;80.91;99175.22;6188381;28;20220;-72
2021/12/16 05:57:44;;;;;;;9.53;7.77;;;;;;;3.50;80.93;99192.69;6108782;28;20234;-74
2021/12/16 06:00:53;;;;;;;8.27;6.80;;;;;;;3.48;81.51;99189.31;6157300;28;20232;-74
2021/12/16 06:03:58;;;;;;;8.53;6.50;;;;;;;3.44;81.55;99185.91;6155701;28;20229;-72
2021/12/16 06:07:01;;;;;;;7.57;6.07;;;;;;;3.42;81.95;99194.69;6171946;28;20232;-74
2021/12/16 06:10:08;;;;;;;7.47;6.30;;;;;;;3.42;81.79;99197.28;6151229;28;20317;-75
2021/12/16 06:13:11;;;;;;;6.73;5.80;;;;;;;3.39;82.01;99194.78;6146672;28;20629;-73
2021/12/16 06:29:25;;;;;;;6.47;5.63;;;;;;;3.32;81.69;99228.00;6155920;28;20227;-73
2021/12/16 06:32:27;;;;;;;7.27;5.93;;;;;;;3.30;81.83;99232.38;6158038;28;20508;-74
2021/12/16 06:35:30;;;;;;;7.13;5.63;;;;;;;3.26;82.36;99231.63;6157913;28;20279;-74
2021/12/16 06:38:32;;;;;;;5.03;4.53;;;;;;;3.22;82.43;99240.41;6127476;28;20237;-74
2021/12/16 06:42:00;;;;;;;6.13;4.57;;;;;;;3.23;82.50;99241.28;6130724;28;20248;-74
2021/12/16 06:45:21;;;;;;;6.67;5.00;;;;;;;3.23;82.53;99243.88;6189109;28;20233;-73
2021/12/16 06:48:28;;;;;;;5.70;4.60;;;;;;;3.22;82.50;99242.16;6163287;28;20232;-73
2021/12/16 06:51:40;;;;;;;6.43;5.40;;;;;;;3.20;82.79;99244.81;6188735;28;20249;-74
2021/12/16 06:55:09;;;;;;;7.60;5.57;;;;;;;3.20;82.43;99251.78;6178658;28;20231;-73
2021/12/16 06:58:39;;;;;;;5.47;4.73;;;;;;;3.20;82.79;99246.56;6180581;28;20259;-74
2021/12/16 07:04:43;;;;;;;7.80;5.23;;;;;;;3.19;82.79;99237.91;6169796;28;20242;-73
2021/12/16 07:07:46;;;;;;;7.70;5.63;;;;;;;3.20;83.20;99247.41;6166389;28;20243;-73
2021/12/16 07:10:51;;;;;;;6.93;5.50;;;;;;;3.22;83.31;99253.47;6174549;28;20244;-74
2021/12/16 07:14:00;;;;;;;6.90;5.53;;;;;;;3.22;82.90;99257.81;6178965;28;20241;-73
2021/12/16 07:17:08;;;;;;;6.93;5.73;;;;;;;3.25;82.84;99245.56;6179777;28;20244;-72
2021/12/16 07:20:13;;;;;;;9.03;6.00;;;;;;;3.29;82.95;99259.41;6177038;28;20229;-74
2021/12/16 07:23:15;;;;;;;7.27;6.03;;;;;;;3.28;82.60;99261.16;6177769;28;20250;-73
2021/12/16 07:26:17;;;;;;;6.20;5.10;;;;;;;3.32;83.03;99264.50;6179621;28;20224;-73
2021/12/16 07:29:19;;;;;;;7.23;5.80;;;;;;;3.34;83.19;99257.50;6179590;28;20245;-74
2021/12/16 07:32:21;;;;;;;7.70;5.50;;;;;;;3.35;83.24;99251.41;6178823;28;20238;-74
2021/12/16 07:35:26;;;;;;;7.00;5.90;;;;;;;3.37;83.00;99259.19;6176610;28;20322;-74
2021/12/16 07:38:29;;;;;;;7.20;5.37;;;;;;;3.39;82.87;99260.88;6187107;28;20240;-74
2021/12/16 07:41:34;;;;;;;6.47;5.20;;;;;;;3.40;83.00;99259.09;6186004;28;20251;-74
2021/12/16 07:44:36;;;;;;;8.13;5.73;;;;;;;3.39;82.81;99250.44;6188086;28;20310;-74
2021/12/16 07:47:38;;;;;;;6.73;5.17;;;;;;;3.43;82.48;99259.03;6176727;28;20237;-74
2021/12/16 07:50:44;;;;;;;7.37;5.97;;;;;;;3.47;82.46;99255.44;6186118;28;20319;-74
2021/12/16 07:53:46;;;;;;;6.93;4.97;;;;;;;3.50;82.88;99258.81;6186929;28;20234;-73
2021/12/16 07:56:53;;;;;;;6.27;4.80;;;;;;;3.55;82.75;99256.09;6186195;28;20241;-74
2021/12/16 07:59:56;;;;;;;5.90;4.47;;;;;;;3.59;82.61;99265.56;6185703;28;20277;-75
2021/12/16 08:03:00;;;;;;;6.20;4.73;;;;;;;3.61;82.14;99274.19;6186614;28;20318;-75
2021/12/16 08:06:08;;;;;;;6.00;4.40;;;;;;;3.62;82.55;99274.16;6173245;28;20251;-74
2021/12/16 08:09:10;;;;;;;6.10;4.27;;;;;;;3.62;82.25;99275.91;6185444;28;20226;-74
2021/12/16 08:12:15;;;;;;;6.17;4.50;;;;;;;3.70;82.10;99281.78;6165541;28;20219;-74
2021/12/16 08:15:17;;;;;;;5.37;4.10;;;;;;;3.72;82.50;99283.44;6186836;28;20217;-74
2021/12/16 08:18:19;;;;;;;5.37;3.57;;;;;;;3.84;82.02;99277.03;6187389;28;20210;-74
2021/12/16 08:21:29;;;;;;;4.47;3.10;;;;;;;3.95;82.05;99284.56;6186408;28;20246;-73
2021/12/16 08:24:33;;;;;;;4.00;3.40;;;;;;;4.08;81.95;99278.97;6186400;28;20709;-72
2021/12/16 08:27:41;;;;;;;3.93;2.90;;;;;;;4.16;81.34;99283.97;6186754;28;20231;-73
2021/12/16 08:30:47;;;;;;;3.90;3.27;;;;;;;4.27;81.49;99281.06;6186486;28;20757;-72
2021/12/16 08:33:49;;;;;;;4.50;2.73;;;;;;;4.29;81.29;99289.72;6182087;28;20240;-73
2021/12/16 08:36:52;;;;;;;3.17;2.87;;;;;;;4.32;81.37;99280.00;6171153;28;20246;-74
2021/12/16 08:39:54;;;;;;;3.73;2.93;;;;;;;4.29;81.29;99287.91;6186076;28;20235;-73
2021/12/16 08:42:57;;;;;;;3.00;2.70;;;;;;;4.31;81.58;99290.50;6184446;28;20239;-72
2021/12/16 08:45:59;;;;;;;3.03;2.27;;;;;;;4.26;81.77;99297.63;6184275;28;20744;-73
2021/12/16 08:49:01;;;;;;;2.67;2.37;;;;;;;4.25;81.36;99295.91;6139709;28;20269;-73
2021/12/16 08:52:08;;;;;;;3.23;1.97;;;;;;;4.27;80.99;99297.59;6170458;28;20229;-72
2021/12/16 08:55:12;;;;;;;2.20;1.73;;;;;;;4.20;81.59;99293.41;6181080;28;20713;-73
2021/12/16 08:58:15;;;;;;;3.00;2.03;;;;;;;4.14;81.80;99291.00;6182802;28;20248;-73
2021/12/16 09:01:22;;;;;;;2.10;1.80;;;;;;;4.14;81.62;99298.81;6180863;28;20240;-73
2021/12/16 09:04:25;;;;;;;1.67;1.30;;;;;;;4.07;82.51;99307.75;6173296;28;20360;-73
2021/12/16 09:07:27;;;;;;;1.73;1.50;;;;;;;3.97;82.46;99319.34;6162686;28;20751;-74
2021/12/16 09:10:32;;;;;;;2.03;1.60;;;;;;;3.87;82.39;99312.66;6173529;28;20245;-73
2021/12/16 09:13:38;;;;;;;1.63;1.50;;;;;;;3.84;82.32;99312.75;6182264;28;20739;-73
2021/12/16 09:16:40;;;;;;;2.23;1.80;;;;;;;3.82;82.29;99312.78;6180267;28;20237;-74
2021/12/16 09:19:49;;;;;;;1.97;1.43;;;;;;;3.83;82.14;99311.03;6183679;28;20224;-73
2021/12/16 09:22:52;;;;;;;2.13;1.73;;;;;;;3.83;82.25;99304.03;6181750;28;20233;-74
2021/12/16 09:25:54;;;;;;;2.60;1.97;;;;;;;3.85;82.26;99311.84;6179592;28;20661;-74
2021/12/16 09:28:57;;;;;;;2.10;1.70;;;;;;;3.83;82.76;99306.66;6180708;28;20327;-73
2021/12/16 09:32:02;;;;;;;3.07;2.57;;;;;;;3.75;82.06;99307.78;6163805;28;20373;-74
2021/12/16 09:35:10;;;;;;;3.07;2.30;;;;;;;3.74;81.50;99301.69;6172189;28;20236;-73
2021/12/16 09:38:14;;;;;;;4.23;2.60;;;;;;;3.80;82.14;99290.22;6181465;28;20226;-75
2021/12/16 09:41:18;;;;;;;3.37;2.80;;;;;;;3.86;82.15;99287.44;6180732;28;20383;-72
2021/12/16 09:44:21;;;;;;;5.57;3.07;;;;;;;3.94;81.62;99293.31;6180729;28;20229;-73
2021/12/16 09:47:23;;;;;;;2.97;2.57;;;;;;;4.02;81.17;99279.13;6156171;28;20291;-74
2021/12/16 09:50:29;;;;;;;3.70;2.97;;;;;;;4.04;81.87;99274.72;6172917;28;20248;-74
2021/12/16 09:53:33;;;;;;;2.60;2.40;;;;;;;4.08;81.09;99278.13;6180466;28;20827;-74
2021/12/16 09:56:38;;;;;;;4.87;3.10;;;;;;;4.17;81.47;99272.63;6180256;28;20263;-74
2021/12/16 09:59:40;;;;;;;3.13;2.83;;;;;;;4.28;80.61;99270.56;6180231;28;20235;-74
2021/12/16 10:02:42;;;;;;;3.60;2.80;;;;;;;4.33;80.55;99270.41;6180320;28;20621;-74
2021/12/16 10:05:45;;;;;;;3.53;2.63;;;;;;;4.32;80.69;99253.88;6161332;28;20237;-74
2021/12/16 10:08:47;;;;;;;4.03;2.93;;;;;;;4.21;80.41;99260.31;6132874;28;20718;-73
2021/12/16 10:11:53;;;;;;;3.63;3.10;;;;;;;4.18;79.93;99258.66;6161810;28;20607;-74
2021/12/16 10:18:19;;;;;;;3.10;2.73;;;;;;;4.11;79.85;99257.09;6178547;28;20247;-73
2021/12/16 10:21:22;;;;;;;3.40;2.60;;;;;;;4.04;79.40;99251.22;6181324;28;20582;-74
2021/12/16 10:24:26;;;;;;;3.30;2.87;;;;;;;4.09;79.75;99245.88;6162178;28;20688;-73
2021/12/16 10:27:28;;;;;;;2.90;2.17;;;;;;;4.14;80.17;99250.94;6179285;28;20231;-73
2021/12/16 10:30:48;;;;;;;3.17;2.47;;;;;;;4.16;80.04;99249.16;6181211;28;20636;-73
2021/12/16 10:34:03;;;;;;;3.07;2.73;;;;;;;4.15;79.48;99237.84;6175868;28;20314;-73
2021/12/16 10:37:05;;;;;;;3.17;2.80;;;;;;;4.14;79.85;99230.91;6159952;28;20236;-74
2021/12/16 10:40:26;;;;;;;2.67;2.30;;;;;;;4.24;79.63;99227.13;6179350;28;20240;-73
2021/12/16 10:43:34;;;;;;;2.50;1.90;;;;;;;4.30;79.65;99232.16;6181486;28;20258;-74
2021/12/16 10:46:43;;;;;;;6.73;2.10;;;;;;;4.34;79.74;99232.91;6178971;28;20271;-71
2021/12/16 10:49:52;;;;;;;2.00;1.80;;;;;;;4.35;79.38;99232.88;6178347;28;20240;-73
2021/12/16 10:52:54;;;;;;;2.30;1.80;;;;;;;4.33;79.92;99231.19;6179607;28;20766;-73
2021/12/16 10:56:01;;;;;;;2.10;1.87;;;;;;;4.38;79.14;99230.19;6179221;28;20299;-73
2021/12/16 10:59:15;;;;;;;2.40;1.90;;;;;;;4.47;79.15;99225.56;6180215;28;20322;-74
2021/12/16 11:02:24;;;;;;;2.63;2.20;;;;;;;4.50;79.23;99222.84;6177528;28;20243;-73
2021/12/16 11:05:27;;;;;;;3.97;2.67;;;;;;;4.44;78.36;99223.91;6173691;28;20244;-73
2021/12/16 11:08:29;;;;;;;2.50;2.27;;;;;;;4.54;79.11;99219.22;6178134;28;20275;-75
2021/12/16 11:11:31;;;;;;;2.43;2.13;;;;;;;4.65;78.94;99215.38;6164041;28;20228;-73
2021/12/16 11:14:34;;;;;;;2.37;1.90;;;;;;;4.75;78.11;99210.72;6161913;28;20377;-73
2021/12/16 11:17:41;;;;;;;3.03;2.33;;;;;;;4.72;78.20;99208.19;6179287;28;20347;-72
2021/12/16 11:20:47;;;;;;;3.17;2.37;;;;;;;4.74;77.35;99216.84;6179663;28;20235;-73
2021/12/16 11:23:50;;;;;;;3.33;2.60;;;;;;;4.73;78.09;99207.28;6176775;28;20238;-74
2021/12/16 11:26:53;;;;;;;3.50;2.90;;;;;;;4.82;78.12;99204.38;6180461;28;20228;-74
2021/12/16 11:29:58;;;;;;;3.83;2.73;;;;;;;5.02;77.18;99199.34;6179510;28;20251;-73
2021/12/16 11:33:19;;;;;;;3.57;2.60;;;;;;;5.16;76.65;99201.50;6179900;28;20240;-74
2021/12/16 11:36:26;;;;;;;2.87;2.40;;;;;;;5.18;76.63;99191.84;6165171;28;20249;-74
2021/12/16 11:39:29;;;;;;;3.00;2.30;;;;;;;5.17;76.94;99209.28;6179285;28;20284;-74
2021/12/16 11:42:31;;;;;;;3.40;2.80;;;;;;;5.17;76.53;99206.69;6178780;28;20228;-74
2021/12/16 11:45:38;;;;;;;4.60;2.83;;;;;;;5.52;75.86;99215.91;6178891;28;20752;-75
2021/12/16 11:48:40;;;;;;;5.40;3.30;;;;;;;5.79;75.01;99214.06;6159916;28;20377;-74
2021/12/16 11:51:51;;;;;;;3.37;3.07;;;;;;;6.05;74.32;99199.19;6175477;28;20677;-73
2021/12/16 11:54:58;;;;;;;3.40;3.10;;;;;;;6.27;73.25;99200.94;6160105;28;20316;-74
2021/12/16 11:58:03;;;;;;;4.50;3.83;;;;;;;6.05;72.72;99199.19;6179348;28;20728;-74
2021/12/16 12:01:22;;;;;;;3.60;3.20;;;;;;;5.80;74.29;99196.56;6179068;28;20384;-75
2021/12/16 12:04:32;;;;;;;4.87;3.77;;;;;;;5.70;74.00;99196.06;6169858;28;20289;-74
2021/12/16 12:07:40;;;;;;;4.20;3.47;;;;;;;5.70;74.57;99188.19;6165019;28;20748;-73
2021/12/16 12:10:53;;;;;;;5.40;4.23;;;;;;;5.60;74.58;99181.59;6177564;28;20233;-75
2021/12/16 12:14:08;;;;;;;4.57;3.43;;;;;;;5.60;74.98;99188.59;6178628;28;20291;-73
2021/12/16 12:17:20;;;;;;;4.27;3.53;;;;;;;5.67;74.05;99195.34;6179275;28;20750;-74
2021/12/16 12:20:30;;;;;;;4.97;3.97;;;;;;;5.72;74.61;99196.88;6178571;28;20728;-74
2021/12/16 12:23:33;;;;;;;5.20;4.13;;;;;;;5.72;74.59;99206.47;6183585;28;20243;-74
2021/12/16 12:26:41;;;;;;;5.83;4.37;;;;;;;5.80;74.00;99191.34;6184656;28;20299;-74
2021/12/16 12:29:49;;;;;;;4.37;3.97;;;;;;;5.77;73.62;99187.09;6182635;28;20582;-75
2021/12/16 12:32:51;;;;;;;4.63;3.37;;;;;;;5.83;74.01;99184.22;6167182;28;20245;-75
2021/12/16 12:35:55;;;;;;;5.43;4.30;;;;;;;5.89;73.22;99178.78;6177497;28;20593;-73
2021/12/16 12:38:57;;;;;;;6.13;4.13;;;;;;;5.91;73.20;99184.81;6182869;28;20442;-72
2021/12/16 12:42:00;;;;;;;5.07;4.57;;;;;;;5.88;74.03;99186.72;6183383;28;20230;-73
2021/12/16 12:45:06;;;;;;;5.00;4.07;;;;;;;5.79;75.30;99203.56;6182055;28;20230;-74
2021/12/16 12:48:15;;;;;;;5.23;3.97;;;;;;;5.78;74.89;99201.91;6172898;28;20225;-74
2021/12/16 12:51:17;;;;;;;5.93;4.37;;;;;;;5.69;74.68;99196.13;6182583;28;20520;-74
2021/12/16 12:54:29;;;;;;;4.73;3.67;;;;;;;5.56;75.53;99193.09;6182435;28;20216;-73
2021/12/16 12:57:34;;;;;;;7.77;4.37;;;;;;;5.53;74.99;99199.28;6183468;28;20279;-73
2021/12/16 13:00:55;;;;;;;5.53;4.20;;;;;;;5.48;75.66;99195.16;6180859;28;20300;-74
2021/12/16 13:04:08;;;;;;;5.80;4.37;;;;;;;5.48;74.85;99203.84;6177145;28;20826;-74
2021/12/16 13:07:12;;;;;;;6.23;5.10;;;;;;;5.47;74.54;99188.19;6191544;28;20243;-75
2021/12/16 13:10:17;;;;;;;5.50;4.73;;;;;;;5.34;74.91;99185.16;6175173;28;20242;-74
2021/12/16 13:30:26;;;;;;;6.73;5.47;;;;;;;5.48;75.29;99184.66;6180407;28;20225;-74
2021/12/16 13:33:17;;;;;;;6.33;4.77;;;;;;;5.44;76.48;99186.53;6180118;28;20252;-74
2021/12/16 13:36:39;;;;;;;6.83;5.17;;;;;;;5.36;76.84;99191.19;6160932;28;20217;-74
2021/12/16 13:39:44;;;;;;;6.73;5.10;;;;;;;5.26;77.17;99191.56;6179418;28;20248;-74
2021/12/16 13:43:00;;;;;;;6.87;5.20;;;;;;;5.08;76.62;99188.69;6179791;28;20587;-74
2021/12/16 14:05:44;;;;;;;7.30;5.50;;;;;;;4.88;77.95;99205.94;6163617;28;20238;-73
2021/12/16 14:08:52;;;;;;;6.50;5.37;;;;;;;4.87;78.14;99205.09;6188742;28;20237;-74
2021/12/16 14:22:57;;;;;;;6.50;5.40;;;;;;;4.67;78.28;99207.50;6181149;28;20256;-74
2021/12/16 14:35:00;;;;;;;6.30;4.67;;;;;;;4.44;78.25;99206.44;6172475;28;20233;-74
2021/12/16 14:38:11;;;;;;;7.47;4.77;;;;;;;4.44;78.65;99200.38;6178090;28;20225;-74
2021/12/16 14:42:04;;;;;;;5.37;4.00;;;;;;;4.43;78.74;99206.50;6179161;28;20336;-74
2021/12/16 14:48:41;;;;;;;6.23;4.77;;;;;;;4.36;79.18;99210.22;6161793;28;20241;-74
2021/12/16 14:51:43;;;;;;;5.93;4.60;;;;;;;4.34;79.22;99197.19;6179339;28;20242;-74
2021/12/16 14:54:54;;;;;;;5.27;4.60;;;;;;;4.28;79.34;99200.00;6179514;28;20308;-74
2021/12/16 14:57:57;;;;;;;6.73;4.97;;;;;;;4.20;79.90;99207.19;6179401;28;20237;-74
2021/12/16 15:01:13;;;;;;;6.33;5.00;;;;;;;4.14;79.23;99203.91;6178207;28;20229;-75
2021/12/16 15:04:20;;;;;;;5.50;4.50;;;;;;;4.12;79.88;99205.72;6171648;28;20276;-75
2021/12/16 15:07:25;;;;;;;5.73;4.77;;;;;;;4.14;79.69;99214.38;6171899;28;20242;-74
2021/12/16 15:10:27;;;;;;;4.97;4.23;;;;;;;4.14;80.01;99209.16;6171460;28;20331;-75
2021/12/16 15:13:39;;;;;;;5.20;4.40;;;;;;;4.12;79.76;99214.41;6165606;28;20232;-75
2021/12/16 15:17:10;;;;;;;5.40;4.43;;;;;;;4.10;79.88;99210.97;6177913;28;20244;-73
2021/12/16 15:40:56;;;;;;;6.30;5.30;;;;;;;4.16;79.92;99252.63;6179722;28;20245;-72
2021/12/16 15:44:05;;;;;;;4.67;4.10;;;;;;;4.14;80.16;99238.75;6176592;28;20236;-75
2021/12/16 15:47:07;;;;;;;5.63;4.50;;;;;;;4.13;80.77;99223.97;6178281;28;20223;-75
2021/12/16 15:50:14;;;;;;;6.17;4.40;;;;;;;4.14;80.62;99222.22;6178254;28;20375;-76
2021/12/16 15:53:21;;;;;;;5.43;4.40;;;;;;;4.11;81.11;99245.78;6178251;28;20240;-76
2021/12/16 15:56:31;;;;;;;5.50;4.50;;;;;;;4.10;81.49;99242.34;6179880;28;20580;-75
2021/12/16 15:59:34;;;;;;;4.80;3.83;;;;;;;4.10;81.29;99250.16;6184212;28;20606;-76
2021/12/16 16:02:36;;;;;;;4.47;3.70;;;;;;;4.10;81.38;99252.78;6182661;28;20284;-76
2021/12/16 16:05:47;;;;;;;5.20;3.93;;;;;;;4.14;81.04;99269.22;6178881;28;20232;-75
2021/12/16 16:09:00;;;;;;;5.00;3.83;;;;;;;4.16;81.83;99267.44;6182322;28;20287;-76
2021/12/16 16:12:03;;;;;;;5.73;4.10;;;;;;;4.17;81.37;99279.59;6171068;28;20682;-76
2021/12/16 16:15:16;;;;;;;4.40;3.83;;;;;;;4.20;81.20;99282.09;6159817;28;20229;-74
2021/12/16 16:21:40;;;;;;;5.07;3.67;;;;;;;4.22;81.68;99303.81;6164930;28;20229;-75
2021/12/16 16:24:49;;;;;;;3.70;3.17;;;;;;;4.19;82.31;99296.97;6161988;28;20236;-76
2021/12/16 16:27:52;;;;;;;4.13;3.47;;;;;;;4.20;82.11;99300.41;6159560;28;20733;-75
2021/12/16 16:30:54;;;;;;;4.07;3.00;;;;;;;4.20;82.21;99292.56;6159165;28;20233;-74
2021/12/16 16:33:58;;;;;;;3.93;2.83;;;;;;;4.20;81.87;99288.19;6190109;28;20609;-74
2021/12/16 16:37:05;;;;;;;2.50;2.10;;;;;;;4.18;82.74;99283.94;6159735;28;20225;-75
2021/12/16 16:40:10;;;;;;;2.97;2.40;;;;;;;4.18;82.73;99279.56;6159211;28;20788;-74
2021/12/16 16:43:28;;;;;;;2.70;2.40;;;;;;;4.17;82.35;99277.00;6159812;28;20229;-74
2021/12/16 16:46:39;;;;;;;2.50;2.30;;;;;;;4.17;82.51;99267.41;6159410;28;20241;-74
2021/12/16 16:49:49;;;;;;;2.67;1.97;;;;;;;4.17;83.01;99279.59;6160433;28;20230;-74
2021/12/16 16:52:55;;;;;;;2.23;2.03;;;;;;;4.17;82.74;99263.94;6183011;28;20611;-72
2021/12/16 16:55:58;;;;;;;1.80;1.70;;;;;;;4.16;82.63;99276.13;6172598;28;20244;-73
2021/12/16 16:59:06;;;;;;;1.93;1.60;;;;;;;4.17;82.44;99266.53;6167805;28;20684;-75
2021/12/16 17:02:19;;;;;;;2.10;1.60;;;;;;;4.20;82.49;99274.28;6159145;28;20581;-75
2021/12/16 17:05:29;;;;;;;1.57;1.47;;;;;;;4.22;82.64;99288.16;6156011;28;20236;-74
2021/12/16 17:08:37;;;;;;;1.73;1.63;;;;;;;4.22;82.34;99275.94;6156787;28;20648;-75
2021/12/16 17:11:46;;;;;;;1.37;1.27;;;;;;;4.20;82.67;99272.50;6179873;28;20703;-74
2021/12/16 17:14:59;;;;;;;1.20;1.10;;;;;;;4.20;82.37;99279.50;6173621;28;20237;-76
2021/12/16 17:18:02;;;;;;;1.50;1.00;;;;;;;4.21;82.69;99289.91;6182258;28;20236;-74
2021/12/16 17:21:20;;;;;;;1.47;0.90;;;;;;;4.25;82.17;99296.78;6185491;28;20339;-74
2021/12/16 17:24:28;;;;;;;0.60;0.60;;;;;;;4.26;82.55;99302.84;6179328;28;20275;-76
2021/12/16 17:27:41;;;;;;;1.07;0.97;;;;;;;4.26;82.45;99308.94;6181654;28;20597;-75
2021/12/16 17:30:45;;;;;;;0.70;0.70;;;;;;;4.27;81.96;99312.41;6180639;28;20599;-74
2021/12/16 17:33:47;;;;;;;0.93;0.80;;;;;;;4.28;82.46;99301.06;6178664;28;20240;-75
2021/12/16 17:36:56;;;;;;;0.60;0.60;;;;;;;4.30;82.98;99287.03;6182497;28;20726;-74
2021/12/16 17:40:06;;;;;;;1.13;0.63;;;;;;;4.31;82.17;99280.91;6162697;28;20229;-75
2021/12/16 17:43:15;;;;;;;1.33;0.53;;;;;;;4.29;82.60;99281.88;6179831;28;20581;-75
2021/12/16 17:46:19;;;;;;;1.20;0.60;;;;;;;4.29;82.23;99281.88;6182419;28;20235;-75
2021/12/16 17:49:21;;;;;;;0.50;0.50;;;;;;;4.30;82.16;99287.03;6174631;28;20271;-73
2021/12/16 17:52:30;;;;;;;0.50;0.50;;;;;;;4.31;82.71;99286.13;6179079;28;20233;-73
2021/12/16 17:55:38;;;;;;;0.60;0.60;;;;;;;4.30;83.07;99287.03;6181382;28;20651;-76
2021/12/16 17:58:43;;;;;;;0.40;0.40;;;;;;;4.31;82.62;99300.94;6179893;28;20763;-73
2021/12/16 18:01:49;;;;;;;0.40;0.40;;;;;;;4.29;83.15;99313.22;6181249;28;20805;-75
2021/12/16 18:04:56;;;;;;;0.60;0.50;;;;;;;4.28;83.20;99307.16;6172241;28;20288;-75
2021/12/16 18:07:58;;;;;;;0.50;0.50;;;;;;;4.28;82.69;99311.50;6176690;28;20237;-75
2021/12/16 18:11:28;;;;;;;0.33;0.33;;;;;;;4.28;83.51;99317.59;6166478;28;20676;-73
2021/12/16 18:14:55;;;;;;;0.50;0.50;;;;;;;4.28;83.03;99301.06;6132304;28;20643;-75
2021/12/16 18:18:07;;;;;;;0.50;0.40;;;;;;;4.26;83.36;99298.47;6178979;28;20243;-74
2021/12/16 18:21:09;;;;;;;0.70;0.50;;;;;;;4.27;83.88;99307.19;6156525;28;20237;-75
2021/12/16 18:24:13;;;;;;;0.57;0.50;;;;;;;4.28;83.45;99299.31;6178276;28;20585;-75
2021/12/16 18:27:31;;;;;;;1.17;0.50;;;;;;;4.28;83.73;99299.31;6157167;28;20225;-74
2021/12/16 18:30:38;;;;;;;0.40;0.40;;;;;;;4.27;83.78;99294.97;6156869;28;20261;-73